Time;durP1;ratioP1;P1;durP2;ratioP2;P2;SDS_P1;SDS_P2;PMS_P1;PMS_P2;Temp;Humidity;BMP_temperature;BMP_pressure;BME280_temperature;BME280_humidity;BME280_pressure;Samples;Min_cycle;Max_cycle;Signal;HPM_P1;HPM_P2
2021/12/17 00:01:16;;;;;;;50.47;27.70;;;;;;;-143.84;99.38;43971.47;5109859;28;20486;-74
2021/12/17 00:03:49;;;;;;;62.00;29.03;;;;;;;-143.84;99.23;44007.66;5111584;28;20474;-74
2021/12/17 00:06:40;;;;;;;47.60;25.47;;;;;;;-143.84;100.00;44017.16;5111500;28;20447;-74
2021/12/17 00:09:07;;;;;;;52.87;25.93;;;;;;;-143.84;100.00;44001.94;5111885;28;20427;-74
2021/12/17 00:11:35;;;;;;;61.67;28.60;;;;;;;-143.84;100.00;44028.59;5111526;28;20786;-74
2021/12/17 00:14:04;;;;;;;57.20;27.50;;;;;;;-143.84;100.00;44030.50;5111134;28;20437;-74
2021/12/17 00:16:36;;;;;;;50.17;26.57;;;;;;;-143.84;100.00;44038.09;5111419;28;20518;-74
2021/12/17 00:19:18;;;;;;;48.47;24.00;;;;;;;-143.84;100.00;44047.63;5111523;28;20443;-74
2021/12/17 00:48:21;;;;;;;49.10;26.10;;;;;;;-143.84;100.00;44020.97;5110003;28;20510;-74
2021/12/17 00:50:03;;;;;;;47.33;25.57;;;;;;;-143.84;99.80;44022.88;5110431;28;20571;-74
2021/12/17 00:52:33;;;;;;;52.40;25.20;;;;;;;-143.84;99.60;44011.47;5110210;28;20450;-74
2021/12/17 00:55:00;;;;;;;52.33;27.60;;;;;;;-143.84;99.67;44009.56;5110356;28;20546;-74
2021/12/17 00:57:34;;;;;;;50.80;25.60;;;;;;;-143.84;99.65;44009.56;5110382;28;20435;-75
2021/12/17 01:00:01;;;;;;;51.40;27.13;;;;;;;-143.84;99.73;44007.66;5110288;28;20532;-75
2021/12/17 01:02:33;;;;;;;50.67;26.57;;;;;;;-143.84;99.39;44007.66;5110227;28;20478;-75
2021/12/17 01:05:06;;;;;;;55.63;29.63;;;;;;;-143.84;99.81;44001.94;5110137;28;20483;-75
2021/12/17 01:07:38;;;;;;;45.47;25.80;;;;;;;-143.84;99.83;44001.94;5110135;28;20488;-75
2021/12/17 01:10:09;;;;;;;48.53;27.80;;;;;;;-143.84;99.74;44001.94;5110148;28;20465;-75
2021/12/17 01:12:37;;;;;;;45.97;26.90;;;;;;;-143.84;99.59;43982.91;5092309;28;20913;-75
2021/12/17 01:15:07;;;;;;;51.27;27.60;;;;;;;-143.84;99.00;43996.22;5110532;28;20431;-75
2021/12/17 01:17:40;;;;;;;44.40;27.33;;;;;;;-143.84;99.02;44001.94;5110009;28;20453;-75
2021/12/17 01:20:25;;;;;;;48.00;27.47;;;;;;;-143.84;99.04;44020.97;5109932;28;20447;-75
2021/12/17 01:23:05;;;;;;;48.20;26.30;;;;;;;-143.84;98.75;43979.09;5094592;28;20509;-75
2021/12/17 01:25:48;;;;;;;45.23;26.50;;;;;;;-143.84;99.15;43990.53;5110151;28;20865;-75
2021/12/17 01:36:33;;;;;;;47.40;26.30;;;;;;;-143.84;98.53;43996.22;5109841;28;20958;-75
2021/12/17 01:42:06;;;;;;;43.17;24.17;;;;;;;-143.84;98.89;43960.06;5046569;28;20489;-75
2021/12/17 01:44:34;;;;;;;40.50;23.50;;;;;;;-143.84;98.97;43981.00;5046436;28;20493;-75
2021/12/17 01:47:02;;;;;;;45.00;25.30;;;;;;;-143.84;98.92;43973.38;5077324;28;20854;-75
2021/12/17 02:00:43;;;;;;;39.57;23.30;;;;;;;-143.84;98.37;43988.63;5109315;28;20473;-75
2021/12/17 02:03:11;;;;;;;41.30;23.03;;;;;;;-143.84;98.43;43961.97;5108552;28;20451;-75
2021/12/17 02:05:40;;;;;;;37.23;23.67;;;;;;;-143.84;98.61;43981.00;5108382;28;20474;-75
2021/12/17 02:08:09;;;;;;;41.10;23.30;;;;;;;-143.84;98.19;43973.38;5109522;28;20450;-74
2021/12/17 02:33:01;;;;;;;44.87;22.90;;;;;;;-143.84;97.18;43941.03;5108327;28;21046;-75
2021/12/17 02:35:36;;;;;;;39.87;22.73;;;;;;;-143.84;96.88;43918.19;5109135;28;20430;-75
2021/12/17 02:38:08;;;;;;;48.33;22.23;;;;;;;-143.84;97.13;43937.22;5108793;28;20445;-75
2021/12/17 02:46:05;;;;;;;45.90;23.30;;;;;;;-143.84;97.00;43948.63;5109114;28;20446;-75
2021/12/17 02:48:34;;;;;;;42.10;24.30;;;;;;;-143.84;96.42;43929.59;5109094;28;20853;-75
2021/12/17 02:51:02;;;;;;;39.13;23.00;;;;;;;-143.84;96.48;43914.38;5108993;28;20439;-75
2021/12/17 02:53:31;;;;;;;37.73;20.97;;;;;;;-143.84;95.81;43902.97;5108954;28;20435;-75
2021/12/17 02:56:03;;;;;;;34.57;21.50;;;;;;;-143.84;95.79;43927.69;5109077;28;20443;-74
2021/12/17 02:58:32;;;;;;;38.23;19.70;;;;;;;-143.84;95.53;43897.25;5108803;28;20496;-74
2021/12/17 03:01:03;;;;;;;40.23;20.83;;;;;;;-143.84;95.43;43914.38;5108982;28;21043;-74
2021/12/17 03:03:33;;;;;;;32.40;19.70;;;;;;;-143.84;95.28;43929.59;5108867;28;20451;-74
2021/12/17 03:06:01;;;;;;;38.80;22.70;;;;;;;-143.84;95.63;43897.25;5108918;28;20558;-75
2021/12/17 03:08:30;;;;;;;37.00;21.07;;;;;;;-143.84;95.62;43895.34;5109573;28;20442;-75
2021/12/17 03:10:59;;;;;;;35.27;21.70;;;;;;;-143.84;95.37;43908.66;5112865;28;20446;-75
2021/12/17 03:13:27;;;;;;;39.40;21.30;;;;;;;-143.84;95.70;43889.63;5112718;28;20435;-75
2021/12/17 03:15:59;;;;;;;36.50;21.17;;;;;;;-143.84;95.89;43904.84;5112509;28;20866;-75
2021/12/17 03:24:06;;;;;;;31.87;20.07;;;;;;;-143.84;95.19;43895.34;5112459;28;20534;-75
2021/12/17 03:26:34;;;;;;;36.40;20.60;;;;;;;-143.84;95.18;43893.44;5112310;28;20469;-75
2021/12/17 03:29:06;;;;;;;37.13;19.27;;;;;;;-143.84;94.76;43885.81;5112312;28;20450;-75
2021/12/17 03:31:34;;;;;;;31.43;19.30;;;;;;;-143.84;94.48;43870.59;5112250;28;20439;-75
2021/12/17 03:34:13;;;;;;;32.00;19.63;;;;;;;-143.84;95.00;43893.44;5112233;28;20451;-75
2021/12/17 03:36:41;;;;;;;31.10;19.90;;;;;;;-143.84;94.82;43910.56;5112159;28;20443;-75
2021/12/17 03:39:09;;;;;;;33.50;19.50;;;;;;;-143.84;94.99;43906.75;5112122;28;21001;-75
2021/12/17 03:41:38;;;;;;;31.03;19.13;;;;;;;-143.84;94.32;43870.59;5112218;28;20434;-75
2021/12/17 03:44:08;;;;;;;30.80;19.07;;;;;;;-143.84;94.41;43906.75;5112039;28;20434;-75
2021/12/17 03:46:35;;;;;;;32.57;19.13;;;;;;;-143.84;94.45;43891.53;5112139;28;21052;-75
2021/12/17 03:49:03;;;;;;;30.03;18.70;;;;;;;-143.84;94.16;43897.25;5094137;28;20443;-75
2021/12/17 03:51:31;;;;;;;37.23;19.97;;;;;;;-143.84;94.12;43920.09;5111829;28;20432;-75
2021/12/17 03:54:00;;;;;;;40.03;20.80;;;;;;;-143.84;93.92;43902.97;5111763;28;20447;-75
2021/12/17 03:56:28;;;;;;;30.93;19.20;;;;;;;-143.84;94.08;43904.84;5111723;28;20435;-75
2021/12/17 03:58:57;;;;;;;35.00;20.10;;;;;;;-143.84;94.06;43904.84;5111586;28;20492;-75
2021/12/17 04:01:26;;;;;;;35.07;19.50;;;;;;;-143.84;94.15;43935.31;5111346;28;20492;-75
2021/12/17 04:03:53;;;;;;;35.80;21.27;;;;;;;-143.84;94.63;43899.16;5111665;28;20447;-76
2021/12/17 04:06:21;;;;;;;35.63;19.87;;;;;;;-143.84;94.88;43885.81;5111502;28;20504;-71
2021/12/17 04:08:48;;;;;;;34.73;20.27;;;;;;;-143.84;95.47;43899.16;5111246;28;20451;-71
2021/12/17 04:11:19;;;;;;;35.43;20.63;;;;;;;-143.84;96.01;43927.69;5111156;28;20528;-71
2021/12/17 04:13:53;;;;;;;39.07;20.10;;;;;;;-143.84;96.01;43918.19;5111414;28;20897;-71
2021/12/17 04:16:25;;;;;;;34.23;20.23;;;;;;;-143.84;96.27;43901.06;5111408;28;20825;-71
2021/12/17 04:18:52;;;;;;;38.97;22.57;;;;;;;-143.84;95.98;43933.41;5111144;28;20462;-71
2021/12/17 04:21:20;;;;;;;33.03;20.60;;;;;;;-143.84;96.46;43914.38;5110961;28;20988;-71
2021/12/17 04:23:49;;;;;;;32.23;19.60;;;;;;;-143.84;96.44;43916.28;5110939;28;20439;-71
2021/12/17 04:26:18;;;;;;;35.50;20.10;;;;;;;-143.84;96.72;43958.16;5111074;28;20471;-71
2021/12/17 04:28:50;;;;;;;38.33;20.33;;;;;;;-143.84;96.85;43942.94;5111198;28;20438;-72
2021/12/17 04:31:19;;;;;;;27.90;18.77;;;;;;;-143.84;97.14;43944.84;5110847;28;20447;-72
2021/12/17 04:33:47;;;;;;;33.93;20.00;;;;;;;-143.84;97.33;43950.53;5110809;28;20978;-72
2021/12/17 04:36:22;;;;;;;35.87;18.70;;;;;;;-143.84;97.77;43958.16;5110774;28;20458;-72
2021/12/17 04:38:49;;;;;;;32.00;18.80;;;;;;;-143.84;97.92;43969.59;5110887;28;20836;-72
2021/12/17 04:44:08;;;;;;;30.73;17.43;;;;;;;-143.84;98.63;43986.72;5110913;28;20427;-72
2021/12/17 04:46:40;;;;;;;33.27;18.43;;;;;;;-143.84;98.85;43979.09;5110464;28;20433;-71
2021/12/17 04:57:27;;;;;;;38.60;20.30;;;;;;;-143.84;99.15;44015.25;5076362;28;20443;-72
2021/12/17 04:59:59;;;;;;;37.27;21.53;;;;;;;-143.84;99.50;44003.84;5110280;28;20450;-72
2021/12/17 05:02:26;;;;;;;33.03;21.20;;;;;;;-143.84;98.76;43986.72;5110230;28;20493;-75
2021/12/17 05:04:54;;;;;;;43.70;21.13;;;;;;;-143.84;98.75;43977.19;5110228;28;20481;-75
2021/12/17 05:07:23;;;;;;;42.63;22.67;;;;;;;-143.84;98.08;43975.28;5110371;28;20439;-75
2021/12/17 05:09:58;;;;;;;44.23;24.00;;;;;;;-143.84;97.91;43979.09;5110226;28;20457;-75
2021/12/17 05:20:46;;;;;;;42.87;24.50;;;;;;;-143.84;97.73;43961.97;5098224;28;20921;-72
2021/12/17 05:23:13;;;;;;;41.90;25.80;;;;;;;-143.84;98.45;43996.22;5089777;28;20895;-72
2021/12/17 05:25:40;;;;;;;40.27;23.70;;;;;;;-143.84;98.76;43981.00;5089573;28;21019;-71
2021/12/17 05:28:08;;;;;;;40.63;22.23;;;;;;;-143.84;98.49;43973.38;5089493;28;20436;-72
2021/12/17 05:30:40;;;;;;;42.43;27.00;;;;;;;-143.84;98.55;43982.91;5089390;28;20431;-72
2021/12/17 05:33:07;;;;;;;40.87;24.77;;;;;;;-143.84;98.79;43969.59;5088916;28;20941;-73
2021/12/17 05:35:34;;;;;;;39.20;23.70;;;;;;;-143.84;98.76;43981.00;5088976;28;20447;-71
2021/12/17 05:38:01;;;;;;;40.30;22.63;;;;;;;-143.84;99.00;43986.72;5089582;28;20496;-72
2021/12/17 05:40:28;;;;;;;40.63;22.33;;;;;;;-143.84;98.64;43996.22;5089352;28;20462;-74
2021/12/17 05:42:59;;;;;;;38.77;21.97;;;;;;;-143.84;99.11;44013.38;5071375;28;20829;-73
2021/12/17 05:45:34;;;;;;;38.63;21.60;;;;;;;-143.84;100.00;44051.44;5089150;28;20483;-72
2021/12/17 05:48:06;;;;;;;32.07;19.90;;;;;;;-143.84;100.00;44053.34;5089096;28;20446;-73
2021/12/17 05:50:35;;;;;;;40.10;24.77;;;;;;;-143.84;100.00;44015.25;5103426;28;20451;-73
2021/12/17 05:53:03;;;;;;;33.57;21.37;;;;;;;-143.84;100.00;44015.25;5109414;28;20484;-73
2021/12/17 05:55:31;;;;;;;75.73;44.07;;;;;;;-143.84;100.00;44015.25;5109351;28;20449;-72
2021/12/17 05:57:59;;;;;;;36.27;23.47;;;;;;;-143.84;100.00;44015.25;5109651;28;20831;-73
2021/12/17 06:00:29;;;;;;;28.27;18.57;;;;;;;-143.84;99.81;44015.25;5108908;28;20451;-72
2021/12/17 06:02:56;;;;;;;27.10;18.97;;;;;;;-143.84;100.00;44026.69;5109174;28;20439;-73
2021/12/17 06:05:26;;;;;;;30.57;19.63;;;;;;;-143.84;99.81;44013.38;5109186;28;20493;-72
2021/12/17 06:07:54;;;;;;;35.53;19.17;;;;;;;-143.84;99.74;44003.84;5108612;28;20450;-72
2021/12/17 06:10:21;;;;;;;37.07;20.00;;;;;;;-143.84;99.74;44019.06;5108806;28;20454;-72
2021/12/17 06:12:49;;;;;;;32.00;19.20;;;;;;;-143.84;99.60;44007.66;5109486;28;20442;-72
2021/12/17 06:15:19;;;;;;;36.93;19.30;;;;;;;-143.84;99.84;44009.56;5108619;28;20527;-73
2021/12/17 06:17:47;;;;;;;28.03;16.80;;;;;;;-143.84;99.71;44007.66;5107586;28;20430;-73
2021/12/17 06:20:16;;;;;;;34.27;22.10;;;;;;;-143.84;99.60;44009.56;5107826;28;20451;-73
2021/12/17 06:22:44;;;;;;;28.40;18.50;;;;;;;-143.84;99.45;44003.84;5107960;28;20507;-73
2021/12/17 06:25:12;;;;;;;28.60;17.03;;;;;;;-143.84;99.03;43990.53;5103010;28;21201;-73
2021/12/17 06:27:40;;;;;;;35.17;17.20;;;;;;;-143.84;99.15;43996.22;5097078;28;20475;-73
2021/12/17 06:30:10;;;;;;;27.60;16.90;;;;;;;-143.84;99.10;43984.81;5099093;28;20443;-73
2021/12/17 06:32:38;;;;;;;27.33;17.00;;;;;;;-143.84;98.91;43990.53;5102498;28;20451;-73
2021/12/17 06:35:06;;;;;;;28.70;16.33;;;;;;;-143.84;98.84;44003.84;5104553;28;20553;-72
2021/12/17 06:37:34;;;;;;;25.27;16.60;;;;;;;-143.84;98.59;43975.28;5105061;28;20439;-72
2021/12/17 06:40:05;;;;;;;24.47;16.07;;;;;;;-143.84;98.57;43994.31;5104698;28;20546;-73
2021/12/17 06:42:32;;;;;;;24.30;15.63;;;;;;;-143.84;98.68;43982.91;5104270;28;20527;-73
2021/12/17 06:45:04;;;;;;;24.57;15.63;;;;;;;-143.84;98.93;43998.13;5107054;28;20464;-73
2021/12/17 06:47:34;;;;;;;22.70;15.20;;;;;;;-143.84;99.29;43996.22;5108253;28;21312;-73
2021/12/17 07:28:11;;;;;;;28.87;17.80;;;;;;;-143.84;99.22;44009.56;5060979;28;20448;-72
2021/12/17 07:33:34;;;;;;;31.40;17.60;;;;;;;-143.84;99.11;43996.22;5060661;28;20576;-73
2021/12/17 07:36:08;;;;;;;23.60;17.97;;;;;;;-143.84;99.20;43982.91;5065408;28;20453;-73
2021/12/17 07:38:47;;;;;;;27.40;18.10;;;;;;;-143.84;98.94;44009.56;5064760;28;20519;-73
2021/12/17 07:41:16;;;;;;;25.90;17.70;;;;;;;-143.84;98.97;43986.72;5066918;28;20821;-72
2021/12/17 07:43:52;;;;;;;27.47;17.83;;;;;;;-143.84;98.86;43998.13;5068549;28;20453;-72
2021/12/17 07:46:20;;;;;;;23.43;16.00;;;;;;;-143.84;98.66;43992.41;5068414;28;20930;-75
2021/12/17 07:48:48;;;;;;;26.70;18.13;;;;;;;-143.84;98.79;43981.00;5068260;28;20445;-76
2021/12/17 07:51:17;;;;;;;33.33;18.63;;;;;;;-143.84;98.82;43979.09;5069182;28;20510;-76
2021/12/17 07:53:45;;;;;;;22.00;16.03;;;;;;;-143.84;98.43;43979.09;5066981;28;20452;-76
2021/12/17 07:56:14;;;;;;;22.83;15.17;;;;;;;-143.84;98.44;43977.19;5068790;28;21021;-76
2021/12/17 07:58:43;;;;;;;23.33;15.43;;;;;;;-143.84;98.49;43996.22;5068876;28;20883;-75
2021/12/17 08:01:10;;;;;;;25.83;16.73;;;;;;;-143.84;98.65;43998.13;5071835;28;20461;-76
2021/12/17 08:03:37;;;;;;;22.23;16.23;;;;;;;-143.84;99.00;44005.75;5068411;28;20449;-76
2021/12/17 08:06:05;;;;;;;29.47;17.07;;;;;;;-143.84;98.70;43990.53;5068487;28;20549;-73
2021/12/17 08:08:32;;;;;;;30.17;17.77;;;;;;;-143.84;98.75;43996.22;5068318;28;20445;-73
2021/12/17 08:11:00;;;;;;;25.40;17.50;;;;;;;-143.84;98.79;43986.72;5068793;28;20436;-73
2021/12/17 08:13:30;;;;;;;25.97;16.47;;;;;;;-143.84;98.87;44011.47;5067695;28;20816;-73
2021/12/17 08:16:15;;;;;;;26.10;17.90;;;;;;;-143.84;98.95;44011.47;5067991;28;20961;-72
2021/12/17 08:18:54;;;;;;;27.70;17.03;;;;;;;-143.84;99.04;44003.84;5066809;28;21180;-73
2021/12/17 08:27:10;;;;;;;25.00;16.80;;;;;;;-143.84;98.83;43996.22;5066966;28;21390;-73
2021/12/17 08:29:55;;;;;;;29.23;17.07;;;;;;;-143.84;98.72;44017.16;5068942;28;20463;-73
2021/12/17 08:32:24;;;;;;;32.40;20.33;;;;;;;-143.84;98.24;43971.47;5068513;28;20455;-73
2021/12/17 08:34:51;;;;;;;33.13;19.67;;;;;;;-143.84;98.81;43984.81;5067568;28;21035;-73
2021/12/17 08:37:18;;;;;;;27.30;18.90;;;;;;;-143.84;98.08;43977.19;5068270;28;20449;-73
2021/12/17 08:39:46;;;;;;;28.60;18.80;;;;;;;-143.84;98.26;43971.47;5067737;28;20440;-73
2021/12/17 08:42:13;;;;;;;32.43;17.50;;;;;;;-143.84;98.07;43944.84;5068657;28;21113;-73
2021/12/17 08:44:41;;;;;;;28.60;17.10;;;;;;;-143.84;97.52;43969.59;5067673;28;20507;-74
2021/12/17 08:47:10;;;;;;;29.80;18.47;;;;;;;-143.84;98.01;43946.75;5067987;28;20476;-73
2021/12/17 08:49:40;;;;;;;26.33;16.57;;;;;;;-143.84;97.37;43952.44;5066742;28;20541;-74
2021/12/17 08:52:09;;;;;;;26.83;16.90;;;;;;;-143.84;96.97;43935.31;5068814;28;20449;-73
2021/12/17 08:54:37;;;;;;;30.47;19.07;;;;;;;-143.84;97.01;43920.09;5067491;28;20506;-73
2021/12/17 08:57:05;;;;;;;30.87;18.47;;;;;;;-143.84;96.63;43933.41;5068106;28;21496;-72
2021/12/17 08:59:32;;;;;;;25.83;16.97;;;;;;;-143.84;96.27;43927.69;5067985;28;20448;-73
2021/12/17 09:01:59;;;;;;;28.73;16.27;;;;;;;-143.84;95.40;43878.22;5067911;28;20452;-73
2021/12/17 09:04:27;;;;;;;22.53;14.57;;;;;;;-143.84;95.62;43906.75;5068056;28;21039;-73
2021/12/17 09:06:56;;;;;;;28.70;16.27;;;;;;;-143.84;95.53;43923.91;5064918;28;20523;-73
2021/12/17 09:09:24;;;;;;;21.00;14.10;;;;;;;-143.84;94.83;43893.44;5065115;28;20449;-73
2021/12/17 09:11:52;;;;;;;24.53;15.73;;;;;;;-143.84;95.14;43904.84;5064041;28;21294;-73
2021/12/17 09:14:20;;;;;;;21.80;13.73;;;;;;;-143.84;94.04;43893.44;5066838;28;21012;-75
2021/12/17 09:16:48;;;;;;;27.93;14.47;;;;;;;-143.84;92.76;43946.75;5069279;28;20530;-75
2021/12/17 09:19:15;;;;;;;22.37;13.33;;;;;;;-143.84;91.85;44001.94;5067173;28;20457;-75
2021/12/17 09:21:43;;;;;;;24.67;13.10;;;;;;;-143.84;91.40;44161.84;5067898;28;20459;-75
2021/12/17 09:24:12;;;;;;;18.10;13.30;;;;;;;-143.84;90.89;44266.53;5067082;28;20550;-75
2021/12/17 09:26:39;;;;;;;20.07;12.63;;;;;;;-143.84;89.72;44645.41;5067101;28;20518;-75
2021/12/17 09:29:07;;;;;;;16.80;12.40;;;;;;;-143.84;89.81;44544.50;5068300;28;20475;-75
2021/12/17 09:31:35;;;;;;;16.80;12.60;;;;;;;-143.84;89.80;44614.94;5067058;28;21147;-75
2021/12/17 09:34:02;;;;;;;17.47;11.63;;;;;;;-143.84;89.55;44670.16;5065378;28;20464;-75
2021/12/17 09:36:29;;;;;;;16.60;13.03;;;;;;;-143.84;89.01;44835.81;5067218;28;20453;-75
2021/12/17 09:38:56;;;;;;;16.40;12.50;;;;;;;-143.84;87.96;44972.91;5066746;28;20460;-75
2021/12/17 09:41:26;;;;;;;20.87;12.60;;;;;;;-143.84;87.48;44990.03;5067791;28;20448;-75
2021/12/17 09:43:54;;;;;;;18.37;12.40;;;;;;;-143.84;87.97;44951.97;5066077;28;20460;-76
2021/12/17 09:46:22;;;;;;;19.80;12.63;;;;;;;-143.84;86.79;45056.69;5067069;28;20481;-75
2021/12/17 09:48:50;;;;;;;15.90;11.57;;;;;;;-143.84;87.00;45026.22;5071909;28;21025;-75
2021/12/17 09:51:20;;;;;;;17.80;12.20;;;;;;;-143.84;85.52;45132.84;5069314;28;20448;-75
2021/12/17 09:53:49;;;;;;;18.70;11.83;;;;;;;-143.84;86.52;45066.22;5067127;28;20495;-76
2021/12/17 09:56:16;;;;;;;16.50;11.67;;;;;;;-143.84;85.37;45106.19;5066849;28;20445;-75
2021/12/17 09:58:45;;;;;;;20.13;11.77;;;;;;;-143.84;85.81;45092.88;5065740;28;20454;-76
2021/12/17 10:01:12;;;;;;;14.90;10.90;;;;;;;-143.84;84.07;45146.19;5068325;28;20793;-74
2021/12/17 10:03:39;;;;;;;18.70;11.20;;;;;;;-143.84;84.37;45189.97;5068521;28;21018;-75
2021/12/17 10:06:21;;;;;;;16.80;12.13;;;;;;;-143.84;84.84;45132.84;5068369;28;20540;-75
2021/12/17 10:08:49;;;;;;;16.20;10.70;;;;;;;-143.84;83.89;45178.56;5068583;28;20455;-74
2021/12/17 10:11:16;;;;;;;13.47;10.60;;;;;;;-143.84;82.75;45197.59;5068414;28;21143;-75
2021/12/17 10:13:47;;;;;;;13.47;10.30;;;;;;;-143.84;82.55;45188.06;5068540;28;20445;-74
2021/12/17 10:16:20;;;;;;;17.97;11.87;;;;;;;-143.84;83.76;45184.25;5068891;28;20685;-74
2021/12/17 10:18:49;;;;;;;15.53;11.43;;;;;;;-143.84;83.38;45148.09;5071466;28;20986;-74
2021/12/17 10:21:20;;;;;;;16.83;11.77;;;;;;;-143.84;83.54;45165.22;5072638;28;20452;-74
2021/12/17 10:23:48;;;;;;;16.00;11.03;;;;;;;-143.84;83.68;45186.16;5075504;28;21305;-74
2021/12/17 10:26:17;;;;;;;16.10;11.13;;;;;;;-143.84;83.78;45155.69;5074955;28;20473;-74
2021/12/17 10:28:54;;;;;;;15.50;10.50;;;;;;;-143.84;84.20;45151.91;5078207;28;20506;-74
2021/12/17 10:31:22;;;;;;;17.23;12.10;;;;;;;-143.84;83.09;45167.13;5082964;28;20459;-74
2021/12/17 10:33:50;;;;;;;17.90;11.73;;;;;;;-143.84;83.58;45136.66;5077180;28;20522;-74
2021/12/17 10:36:17;;;;;;;16.83;11.10;;;;;;;-143.84;83.58;45163.31;5085991;28;20452;-74
2021/12/17 10:38:45;;;;;;;16.43;11.80;;;;;;;-143.84;82.98;45188.06;5079711;28;20455;-74
2021/12/17 10:41:15;;;;;;;17.27;11.77;;;;;;;-143.84;82.96;45180.47;5074072;28;20460;-75
2021/12/17 10:43:50;;;;;;;16.03;10.90;;;;;;;-143.84;82.95;45157.59;5076542;28;20518;-74
2021/12/17 10:46:25;;;;;;;20.13;12.30;;;;;;;-143.84;83.10;45169.03;5077366;28;20519;-74
2021/12/17 10:48:56;;;;;;;19.30;11.53;;;;;;;-143.84;82.06;45188.06;5082889;28;20488;-74
2021/12/17 10:51:44;;;;;;;20.33;13.30;;;;;;;-143.84;82.32;45184.25;5073418;28;20461;-74
2021/12/17 10:54:13;;;;;;;21.57;13.77;;;;;;;-143.84;83.00;45167.13;5081115;28;20486;-75
2021/12/17 10:56:43;;;;;;;15.10;11.60;;;;;;;-143.84;82.25;45180.47;5083568;28;20482;-75
2021/12/17 10:59:13;;;;;;;16.33;11.47;;;;;;;-143.84;82.89;45189.97;5081408;28;20461;-74
2021/12/17 11:01:44;;;;;;;15.00;11.40;;;;;;;-143.84;82.29;45195.69;5078418;28;20476;-74
2021/12/17 11:04:18;;;;;;;16.40;12.27;;;;;;;-143.84;82.21;45182.38;5075964;28;20446;-75
2021/12/17 11:06:52;;;;;;;16.43;11.60;;;;;;;-143.84;82.57;45193.78;5088418;28;20495;-74
2021/12/17 11:09:38;;;;;;;17.37;11.97;;;;;;;-143.84;82.55;45188.06;5087929;28;20452;-75
2021/12/17 11:12:27;;;;;;;15.83;11.37;;;;;;;-143.84;82.91;45167.13;5081093;28;20509;-74
2021/12/17 11:14:56;;;;;;;26.17;14.70;;;;;;;-143.84;81.74;45189.97;5087885;28;20460;-74
2021/12/17 11:17:25;;;;;;;15.17;10.53;;;;;;;-143.84;80.85;45199.50;5087195;28;20456;-73
2021/12/17 11:19:54;;;;;;;18.40;11.80;;;;;;;-143.84;81.09;45193.78;5087558;28;20510;-73
2021/12/17 11:22:23;;;;;;;15.53;11.00;;;;;;;-143.84;81.08;45188.06;5078775;28;20503;-73
2021/12/17 11:24:51;;;;;;;16.13;9.10;;;;;;;-143.84;78.89;45195.69;5080010;28;20483;-73
2021/12/17 11:27:19;;;;;;;15.63;10.10;;;;;;;-143.84;78.65;45210.94;5070749;28;20489;-73
2021/12/17 11:29:46;;;;;;;13.63;8.93;;;;;;;-143.84;79.11;45174.75;5078510;28;20458;-73
2021/12/17 11:32:14;;;;;;;15.73;9.63;;;;;;;-143.84;79.23;45207.13;5076452;28;20460;-73
2021/12/17 11:34:43;;;;;;;19.23;10.53;;;;;;;-143.84;78.00;45193.78;5074640;28;20460;-73
2021/12/17 11:37:11;;;;;;;14.80;10.07;;;;;;;-143.84;78.26;45226.16;5079725;28;20457;-73
2021/12/17 11:39:44;;;;;;;16.60;9.50;;;;;;;-143.84;77.94;45186.16;5091324;28;20827;-73
2021/12/17 11:42:29;;;;;;;15.43;9.90;;;;;;;-143.84;77.87;45184.25;5091323;28;20947;-73
2021/12/17 11:47:40;;;;;;;16.90;10.37;;;;;;;-143.84;78.62;45226.16;5058415;28;20477;-73
2021/12/17 11:50:12;;;;;;;14.13;10.03;;;;;;;-143.84;78.40;45197.59;5075249;28;20521;-73
2021/12/17 11:52:41;;;;;;;17.20;9.57;;;;;;;-143.84;78.87;45201.41;5082440;28;21022;-73
2021/12/17 11:55:28;;;;;;;14.47;9.53;;;;;;;-143.84;78.74;45231.88;5077325;28;21190;-74
2021/12/17 11:57:59;;;;;;;12.47;9.00;;;;;;;-143.84;78.84;45203.31;5071185;28;21161;-74
2021/12/17 12:00:30;;;;;;;11.03;8.90;;;;;;;-143.84;79.24;45210.94;5089273;28;20452;-74
2021/12/17 12:03:15;;;;;;;17.40;10.73;;;;;;;-143.84;79.62;45189.97;5075159;28;20441;-74
2021/12/17 12:05:46;;;;;;;15.00;9.70;;;;;;;-143.84;79.34;45222.34;5070918;28;20440;-74
2021/12/17 12:08:30;;;;;;;20.50;10.87;;;;;;;-143.84;79.84;45207.13;5088123;28;20481;-74
2021/12/17 12:11:09;;;;;;;15.57;9.37;;;;;;;-143.84;79.71;45231.88;5076580;28;20457;-74
2021/12/17 12:13:39;;;;;;;22.63;11.67;;;;;;;-143.84;80.25;45214.72;5089512;28;20456;-74
2021/12/17 12:16:08;;;;;;;20.47;10.73;;;;;;;-143.84;80.62;45207.13;5091190;28;20467;-74
2021/12/17 12:18:49;;;;;;;20.30;11.03;;;;;;;-143.84;81.17;45195.69;5071167;28;21218;-74
2021/12/17 12:21:18;;;;;;;19.47;11.80;;;;;;;-143.84;80.72;45197.59;5084800;28;20961;-74
2021/12/17 12:23:57;;;;;;;17.40;11.30;;;;;;;-143.84;82.09;45191.88;5090816;28;20550;-74
2021/12/17 12:26:44;;;;;;;18.80;11.37;;;;;;;-143.84;81.53;45174.75;5090561;28;20457;-74
2021/12/17 12:29:17;;;;;;;19.77;11.93;;;;;;;-143.84;81.69;45229.97;5076275;28;20460;-74
2021/12/17 12:32:00;;;;;;;16.50;10.20;;;;;;;-143.84;81.94;45207.13;5080963;28;20500;-74
2021/12/17 12:34:34;;;;;;;17.20;10.77;;;;;;;-143.84;82.02;45165.22;5083518;28;20550;-74
2021/12/17 12:37:24;;;;;;;15.40;11.20;;;;;;;-143.84;82.72;45172.84;5071900;28;20452;-74
2021/12/17 12:40:16;;;;;;;18.00;10.70;;;;;;;-143.84;83.36;45203.31;5070421;28;20872;-74
2021/12/17 12:42:50;;;;;;;16.07;11.27;;;;;;;-143.84;83.11;45182.38;5069444;28;20575;-74
2021/12/17 12:45:17;;;;;;;16.90;10.60;;;;;;;-143.84;83.21;45199.50;5069999;28;20463;-74
2021/12/17 12:47:48;;;;;;;15.50;11.07;;;;;;;-143.84;83.72;45170.94;5069741;28;20847;-74
2021/12/17 12:50:17;;;;;;;20.50;10.83;;;;;;;-143.84;83.73;45174.75;5070648;28;20812;-74
2021/12/17 12:52:48;;;;;;;19.87;12.33;;;;;;;-143.84;83.40;45191.88;5082427;28;20455;-74
2021/12/17 12:55:23;;;;;;;13.97;10.33;;;;;;;-143.84;83.38;45186.16;5064631;28;20463;-74
2021/12/17 12:57:52;;;;;;;14.30;9.60;;;;;;;-143.84;83.01;45153.81;5076062;28;20443;-74
2021/12/17 13:00:22;;;;;;;14.07;10.03;;;;;;;-143.84;83.64;45180.47;5080016;28;21047;-74
2021/12/17 13:02:53;;;;;;;13.13;10.20;;;;;;;-143.84;83.66;45174.75;5068952;28;20464;-74
2021/12/17 13:05:22;;;;;;;15.90;10.70;;;;;;;-143.84;83.90;45155.69;5069516;28;20459;-74
2021/12/17 13:07:52;;;;;;;15.17;10.30;;;;;;;-143.84;83.32;45189.97;5069727;28;20859;-74
2021/12/17 13:10:22;;;;;;;14.50;9.87;;;;;;;-143.84;83.23;45214.72;5070025;28;20969;-74
2021/12/17 13:12:54;;;;;;;15.00;10.37;;;;;;;-143.84;83.55;45178.56;5074469;28;20436;-74
2021/12/17 13:15:39;;;;;;;18.53;11.00;;;;;;;-143.84;83.79;45189.97;5086260;28;20484;-74
2021/12/17 13:23:48;;;;;;;16.47;9.63;;;;;;;-143.84;83.63;45148.09;5057669;28;20494;-74
2021/12/17 13:26:15;;;;;;;14.43;10.07;;;;;;;-143.84;83.58;45176.66;5089560;28;20459;-74
2021/12/17 13:28:52;;;;;;;16.00;10.30;;;;;;;-143.84;83.24;45167.13;5089333;28;20489;-74
2021/12/17 13:31:39;;;;;;;18.43;11.13;;;;;;;-143.84;83.32;45155.69;5089111;28;20967;-75
2021/12/17 13:34:11;;;;;;;17.43;10.00;;;;;;;-143.84;83.28;45176.66;5089625;28;20459;-74
2021/12/17 13:36:45;;;;;;;18.80;10.27;;;;;;;-143.84;83.29;45169.03;5089532;28;20436;-74
2021/12/17 13:39:13;;;;;;;15.47;9.80;;;;;;;-143.84;83.31;45197.59;5089365;28;20499;-74
2021/12/17 13:41:42;;;;;;;13.80;10.07;;;;;;;-143.84;82.95;45140.47;5089184;28;20460;-74
2021/12/17 13:44:33;;;;;;;13.47;9.50;;;;;;;-143.84;83.43;45184.25;5088854;28;20509;-74
2021/12/17 13:47:15;;;;;;;16.03;9.90;;;;;;;-143.84;82.52;45170.94;5089331;28;20798;-74
2021/12/17 13:49:45;;;;;;;15.70;9.67;;;;;;;-143.84;83.17;45178.56;5089159;28;20448;-74
2021/12/17 13:52:12;;;;;;;13.53;8.57;;;;;;;-143.84;83.07;45184.25;5088438;28;20463;-74
2021/12/17 13:54:41;;;;;;;14.10;9.83;;;;;;;-143.84;83.47;45159.50;5088838;28;20508;-74